createdAt,value
2019-02-14T00:01:15.379Z,79.60
2019-02-14T00:03:44.759Z,79.50
2019-02-14T00:06:14.162Z,79.40
2019-02-14T00:08:43.537Z,79.20
2019-02-14T00:11:12.956Z,79.20
2019-02-14T00:13:42.343Z,79.30
2019-02-14T00:16:11.783Z,79.40
2019-02-14T00:18:41.123Z,80.20
2019-02-14T00:21:10.502Z,79.60
2019-02-14T00:23:40.011Z,79.60
2019-02-14T00:26:09.382Z,79.70
2019-02-14T00:28:38.771Z,79.70
2019-02-14T00:31:08.228Z,79.80
2019-02-14T00:33:37.599Z,79.70
2019-02-14T00:36:07.326Z,79.90
2019-02-14T00:38:36.738Z,80.00
2019-02-14T00:41:06.258Z,80.00
2019-02-14T00:43:35.659Z,80.00
2019-02-14T00:46:05.042Z,80.30
2019-02-14T00:48:34.787Z,80.70
2019-02-14T00:51:04.170Z,81.00
2019-02-14T00:53:33.542Z,81.20
2019-02-14T00:56:02.955Z,81.50
2019-02-14T00:58:32.326Z,81.40
2019-02-14T01:01:01.739Z,81.40
2019-02-14T01:03:31.103Z,81.30
2019-02-14T01:06:00.507Z,81.30
2019-02-14T01:08:29.889Z,81.50
2019-02-14T01:10:59.332Z,81.50
2019-02-14T01:13:28.699Z,81.60
2019-02-14T01:15:58.120Z,81.80
2019-02-14T01:18:27.551Z,81.90
2019-02-14T01:20:56.942Z,82.10
2019-02-14T01:23:26.362Z,82.40
2019-02-14T01:25:55.749Z,82.60
2019-02-14T01:28:25.139Z,82.80
2019-02-14T01:30:54.668Z,83.00
2019-02-14T01:33:24.052Z,83.20
2019-02-14T01:35:53.464Z,83.40
2019-02-14T01:38:22.843Z,83.60
2019-02-14T01:40:52.393Z,83.80
2019-02-14T01:43:21.766Z,83.80
2019-02-14T01:45:51.159Z,83.90
2019-02-14T01:48:20.554Z,83.90
2019-02-14T01:50:49.945Z,84.00
2019-02-14T01:53:19.347Z,83.80
2019-02-14T01:55:48.727Z,83.80
2019-02-14T01:58:18.130Z,83.70
2019-02-14T02:00:47.536Z,83.50
2019-02-14T02:03:16.919Z,83.40
2019-02-14T02:05:50.892Z,83.20
2019-02-14T02:08:17.336Z,83.10
2019-02-14T02:10:46.743Z,83.10
2019-02-14T02:13:16.126Z,83.20
2019-02-14T02:15:45.635Z,83.00
2019-02-14T02:18:15.083Z,82.80
2019-02-14T02:20:44.453Z,82.50
2019-02-14T02:23:13.892Z,82.40
2019-02-14T02:25:43.267Z,82.50
2019-02-14T02:28:12.772Z,82.60
2019-02-14T02:30:42.300Z,82.60
2019-02-14T02:33:11.811Z,82.60
2019-02-14T02:35:41.183Z,82.40
2019-02-14T02:38:10.557Z,82.30
2019-02-14T02:40:39.987Z,82.40
2019-02-14T02:43:09.361Z,82.80
2019-02-14T02:45:38.772Z,82.90
2019-02-14T02:48:08.200Z,83.00
2019-02-14T02:50:37.712Z,82.80
2019-02-14T02:53:07.216Z,82.70
2019-02-14T02:55:36.796Z,82.70
2019-02-14T02:58:06.470Z,82.70
2019-02-14T03:00:36.105Z,82.70
2019-02-14T03:03:06.009Z,82.40
2019-02-14T03:05:35.716Z,82.30
2019-02-14T03:08:05.366Z,82.30
2019-02-14T03:10:34.754Z,83.00
2019-02-14T03:13:04.717Z,82.50
2019-02-14T03:15:34.401Z,82.40
2019-02-14T03:18:04.124Z,82.10
2019-02-14T03:20:33.821Z,82.10
2019-02-14T03:23:03.356Z,82.10
2019-02-14T03:25:32.861Z,82.00
2019-02-14T03:28:02.234Z,81.90
2019-02-14T03:30:31.596Z,81.70
2019-02-14T03:33:01.041Z,81.60
2019-02-14T03:35:30.413Z,81.50
2019-02-14T03:37:59.845Z,81.50
2019-02-14T03:40:29.698Z,81.60
2019-02-14T03:42:59.087Z,81.80
2019-02-14T03:45:28.495Z,82.00
2019-02-14T03:47:57.880Z,82.20
2019-02-14T03:50:27.287Z,82.50
2019-02-14T03:52:56.670Z,82.60
2019-02-14T03:55:26.107Z,82.50
2019-02-14T03:57:55.475Z,83.10
2019-02-14T04:00:24.839Z,82.60
2019-02-14T04:02:54.271Z,83.40
2019-02-14T04:05:23.650Z,82.70
2019-02-14T04:07:53.071Z,82.70
2019-02-14T04:10:22.455Z,82.60
2019-02-14T04:12:51.860Z,82.60
2019-02-14T04:15:21.235Z,82.70
2019-02-14T04:17:50.673Z,82.50
2019-02-14T04:20:20.087Z,82.00
2019-02-14T04:22:49.459Z,81.60
2019-02-14T04:25:18.855Z,81.40
2019-02-14T04:27:48.227Z,81.10
2019-02-14T04:30:17.559Z,80.90
2019-02-14T04:32:46.943Z,81.00
2019-02-14T04:35:16.384Z,81.20
2019-02-14T04:37:45.760Z,81.20
2019-02-14T04:40:15.168Z,81.40
2019-02-14T04:42:44.565Z,81.50
2019-02-14T04:45:14.083Z,81.40
2019-02-14T04:47:43.659Z,81.20
2019-02-14T04:50:13.054Z,81.30
2019-02-14T04:52:42.448Z,81.50
2019-02-14T04:55:11.846Z,81.60
2019-02-14T04:57:41.249Z,81.70
2019-02-14T05:00:11.184Z,81.80
2019-02-14T05:02:40.590Z,82.10
2019-02-14T05:05:10.114Z,82.30
2019-02-14T05:07:39.518Z,82.40
2019-02-14T05:10:09.114Z,82.60
2019-02-14T05:12:38.478Z,82.80
2019-02-14T05:15:07.927Z,82.90
2019-02-14T05:17:37.363Z,82.90
2019-02-14T05:20:07.711Z,82.90
2019-02-14T05:22:37.107Z,82.80
2019-02-14T05:25:06.951Z,82.80
2019-02-14T05:27:36.338Z,82.40
2019-02-14T05:30:05.854Z,81.80
2019-02-14T05:32:35.254Z,81.40
2019-02-14T05:35:04.872Z,81.10
2019-02-14T05:37:34.352Z,80.90
2019-02-14T05:40:03.723Z,80.50
2019-02-14T05:42:33.116Z,80.20
2019-02-14T05:45:02.501Z,79.80
2019-02-14T05:47:31.888Z,79.70
2019-02-14T05:50:01.304Z,79.50
2019-02-14T05:52:30.671Z,79.40
2019-02-14T05:55:00.082Z,79.40
2019-02-14T05:57:29.452Z,79.30
2019-02-14T05:59:58.832Z,79.30
2019-02-14T06:02:28.249Z,79.20
2019-02-14T06:04:57.612Z,79.30
2019-02-14T06:07:27.031Z,79.80
2019-02-14T06:09:56.434Z,80.10
2019-02-14T06:12:25.876Z,80.10
2019-02-14T06:14:55.243Z,80.10
2019-02-14T06:17:24.610Z,80.10
2019-02-14T06:19:54.023Z,80.20
2019-02-14T06:22:23.390Z,80.10
2019-02-14T06:24:52.739Z,80.10
2019-02-14T06:27:22.448Z,80.10
2019-02-14T06:29:51.862Z,80.20
2019-02-14T06:32:21.235Z,80.20
2019-02-14T06:34:50.688Z,80.30
2019-02-14T06:37:20.075Z,80.40
2019-02-14T06:39:49.467Z,80.40
2019-02-14T06:42:18.852Z,80.10
2019-02-14T06:44:48.258Z,79.90
2019-02-14T06:47:17.651Z,79.70
2019-02-14T06:49:47.024Z,79.30
2019-02-14T06:52:16.449Z,79.30
2019-02-14T06:54:45.932Z,79.20
2019-02-14T06:57:15.447Z,78.90
2019-02-14T06:59:44.871Z,79.20
2019-02-14T07:02:14.286Z,79.30
2019-02-14T07:04:43.664Z,79.30
2019-02-14T07:07:18.645Z,78.90
2019-02-14T07:09:44.135Z,78.90
2019-02-14T07:12:13.513Z,78.70
2019-02-14T07:14:42.932Z,78.60
2019-02-14T07:17:12.321Z,78.40
2019-02-14T07:19:41.803Z,78.20
2019-02-14T07:22:11.282Z,77.90
2019-02-14T07:24:40.657Z,77.80
2019-02-14T07:27:10.056Z,77.90
2019-02-14T07:29:39.442Z,78.10
2019-02-14T07:32:08.847Z,78.10
2019-02-14T07:34:38.236Z,77.80
2019-02-14T07:37:07.851Z,77.50
2019-02-14T07:39:37.227Z,77.30
2019-02-14T07:42:06.657Z,77.10
2019-02-14T07:44:36.016Z,77.20
2019-02-14T07:47:05.400Z,77.30
2019-02-14T07:49:34.794Z,77.50
2019-02-14T07:52:04.177Z,77.40
2019-02-14T07:54:33.587Z,77.40
2019-02-14T07:57:03.001Z,77.50
2019-02-14T07:59:32.364Z,77.40
2019-02-14T08:02:01.767Z,77.40
2019-02-14T08:04:31.158Z,77.40
2019-02-14T08:07:00.617Z,77.30
2019-02-14T08:09:29.992Z,76.90
2019-02-14T08:11:59.388Z,76.90
2019-02-14T08:14:28.808Z,77.00
2019-02-14T08:16:58.204Z,77.10
2019-02-14T08:19:27.688Z,77.10
2019-02-14T08:21:57.102Z,77.30
2019-02-14T08:24:26.540Z,77.50
2019-02-14T08:26:55.915Z,77.60
2019-02-14T08:29:25.299Z,77.10
2019-02-14T08:31:54.728Z,76.50
2019-02-14T08:34:24.451Z,76.10
2019-02-14T08:36:53.844Z,75.50
2019-02-14T08:39:23.224Z,75.30
2019-02-14T08:41:52.624Z,75.00
2019-02-14T08:44:21.999Z,74.40
2019-02-14T08:46:51.387Z,73.90
2019-02-14T08:49:20.831Z,73.40
2019-02-14T08:51:50.207Z,73.10
2019-02-14T08:54:19.573Z,72.90
2019-02-14T08:56:48.957Z,72.40
2019-02-14T08:59:18.359Z,72.30
2019-02-14T09:01:47.727Z,72.00
2019-02-14T09:04:17.143Z,71.70
2019-02-14T09:06:46.549Z,71.20
2019-02-14T09:09:16.284Z,70.80
2019-02-14T09:11:45.674Z,70.30
2019-02-14T09:14:15.052Z,69.60
2019-02-14T09:16:44.460Z,69.10
2019-02-14T09:19:13.905Z,69.00
2019-02-14T09:21:43.376Z,68.40
2019-02-14T09:24:12.760Z,68.10
2019-02-14T09:26:42.179Z,67.70
2019-02-14T09:29:13.889Z,67.40
2019-02-14T09:31:42.610Z,67.30
2019-02-14T09:34:12.019Z,67.50
2019-02-14T09:36:41.452Z,67.70
2019-02-14T09:39:10.854Z,67.90
2019-02-14T09:41:40.235Z,68.10
2019-02-14T09:44:09.652Z,68.10
2019-02-14T09:46:39.028Z,68.10
2019-02-14T09:49:08.436Z,68.20
2019-02-14T09:51:37.808Z,68.20
2019-02-14T09:54:07.176Z,68.20
2019-02-14T09:56:36.603Z,68.10
2019-02-14T09:59:05.963Z,68.00
2019-02-14T10:01:35.375Z,67.70
2019-02-14T10:04:04.770Z,67.30
2019-02-14T10:06:36.687Z,67.10
2019-02-14T10:09:07.732Z,66.90
2019-02-14T10:11:37.496Z,66.60
2019-02-14T10:14:06.883Z,66.10
2019-02-14T10:16:36.268Z,65.40
2019-02-14T10:19:05.736Z,64.70
2019-02-14T10:21:35.148Z,64.30
2019-02-14T10:24:04.550Z,63.80
2019-02-14T10:26:33.957Z,63.70
2019-02-14T10:29:03.360Z,63.20
2019-02-14T10:31:32.736Z,63.00
2019-02-14T10:34:02.119Z,62.60
2019-02-14T10:36:31.519Z,62.40
2019-02-14T10:39:00.915Z,62.20
2019-02-14T10:41:30.314Z,61.90
2019-02-14T10:43:59.705Z,61.50
2019-02-14T10:46:29.412Z,61.30
2019-02-14T10:48:58.803Z,61.20
2019-02-14T10:51:28.184Z,61.20
2019-02-14T10:53:57.587Z,60.90
2019-02-14T10:56:26.980Z,60.80
2019-02-14T10:58:56.466Z,61.10
2019-02-14T11:01:25.850Z,61.10
2019-02-14T11:03:55.264Z,60.60
2019-02-14T11:06:24.708Z,60.10
2019-02-14T11:08:54.095Z,59.80
2019-02-14T11:11:23.495Z,59.50
2019-02-14T11:13:52.864Z,59.40
2019-02-14T11:16:22.275Z,59.10
2019-02-14T11:18:51.660Z,58.60
2019-02-14T11:21:21.102Z,58.80
2019-02-14T11:23:50.432Z,58.70
2019-02-14T11:26:19.874Z,58.60
2019-02-14T11:28:49.266Z,58.40
2019-02-14T11:31:20.502Z,57.70
2019-02-14T11:33:49.899Z,57.80
2019-02-14T11:36:19.267Z,57.50
2019-02-14T11:38:48.723Z,57.40
2019-02-14T11:41:18.096Z,57.70
2019-02-14T11:43:47.469Z,57.70
2019-02-14T11:46:16.867Z,57.60
2019-02-14T11:48:47.865Z,57.20
2019-02-14T11:51:17.372Z,56.80
2019-02-14T11:53:46.735Z,56.50
2019-02-14T11:56:16.223Z,56.50
2019-02-14T11:58:45.595Z,56.60
2019-02-14T12:01:14.976Z,56.40
2019-02-14T12:03:44.383Z,56.20
2019-02-14T12:06:17.585Z,56.00
2019-02-14T12:08:57.727Z,55.70
2019-02-14T12:11:15.827Z,55.30
2019-02-14T12:13:45.243Z,55.10
2019-02-14T12:16:14.557Z,54.70
2019-02-14T12:18:43.926Z,54.80
2019-02-14T12:21:13.329Z,54.70
2019-02-14T12:23:42.768Z,54.50
2019-02-14T12:26:12.164Z,54.00
2019-02-14T12:28:41.534Z,53.80
2019-02-14T12:31:11.277Z,53.50
2019-02-14T12:33:40.670Z,53.30
2019-02-14T12:36:10.072Z,53.30
2019-02-14T12:38:39.465Z,52.80
2019-02-14T12:41:08.957Z,52.60
2019-02-14T12:43:38.359Z,52.60
2019-02-14T12:46:07.731Z,51.60
2019-02-14T12:48:37.161Z,51.80
2019-02-14T12:51:06.639Z,51.70
2019-02-14T12:53:36.164Z,51.50
2019-02-14T12:56:05.783Z,51.30
2019-02-14T12:58:35.415Z,51.40
2019-02-14T13:01:05.433Z,51.40
2019-02-14T13:03:35.084Z,51.50
2019-02-14T13:06:04.827Z,51.90
2019-02-14T13:08:34.203Z,52.10
2019-02-14T13:11:03.634Z,52.10
2019-02-14T13:13:33.019Z,52.40
2019-02-14T13:16:02.375Z,52.30
2019-02-14T13:18:32.204Z,52.00
2019-02-14T13:21:01.551Z,51.80
2019-02-14T13:23:31.502Z,51.60
2019-02-14T13:26:00.918Z,51.40
2019-02-14T13:28:30.312Z,51.20
2019-02-14T13:30:59.858Z,51.30
2019-02-14T13:33:29.231Z,51.20
2019-02-14T13:35:58.984Z,50.90
2019-02-14T13:38:28.384Z,50.60
2019-02-14T13:40:57.781Z,51.20
2019-02-14T13:43:27.189Z,51.70
2019-02-14T13:45:56.579Z,51.90
2019-02-14T13:48:25.978Z,52.00
2019-02-14T13:50:55.301Z,52.20
2019-02-14T13:53:25.024Z,52.30
2019-02-14T13:55:54.413Z,52.30
2019-02-14T13:58:23.791Z,52.20
2019-02-14T14:00:53.208Z,52.20
2019-02-14T14:03:22.595Z,52.10
2019-02-14T14:05:52.011Z,52.10
2019-02-14T14:08:21.410Z,52.20
2019-02-14T14:10:50.833Z,52.10
2019-02-14T14:13:20.207Z,52.00
2019-02-14T14:15:49.606Z,51.90
2019-02-14T14:18:19.023Z,52.00
2019-02-14T14:20:48.417Z,51.80
2019-02-14T14:23:19.819Z,51.90
2019-02-14T14:25:48.870Z,52.00
2019-02-14T14:28:18.285Z,51.90
2019-02-14T14:30:47.659Z,51.70
2019-02-14T14:33:17.040Z,51.50
2019-02-14T14:35:46.448Z,51.40
2019-02-14T14:38:15.828Z,51.10
2019-02-14T14:40:45.278Z,51.00
2019-02-14T14:43:33.596Z,50.80
2019-02-14T14:46:10.562Z,50.90
2019-02-14T14:48:41.659Z,50.80
2019-02-14T14:51:11.064Z,50.40
2019-02-14T14:53:41.114Z,50.30
2019-02-14T14:56:11.507Z,50.40
2019-02-14T14:58:40.935Z,50.00
2019-02-14T15:01:10.323Z,50.10
2019-02-14T15:03:40.755Z,50.40
2019-02-14T15:06:10.259Z,50.70
2019-02-14T15:08:39.642Z,51.00
2019-02-14T15:11:09.037Z,51.30
2019-02-14T15:13:38.455Z,51.80
2019-02-14T15:16:07.957Z,52.00
2019-02-14T15:18:37.347Z,52.30
2019-02-14T15:21:06.721Z,52.60
2019-02-14T15:23:36.144Z,52.60
2019-02-14T15:26:05.747Z,52.50
2019-02-14T15:28:37.443Z,52.60
2019-02-14T15:31:06.672Z,52.70
2019-02-14T15:33:36.088Z,52.70
2019-02-14T15:36:05.501Z,52.80
2019-02-14T15:38:36.866Z,53.00
2019-02-14T15:41:05.956Z,53.10
2019-02-14T15:43:35.380Z,53.30
2019-02-14T15:46:04.775Z,53.40
2019-02-14T15:48:34.151Z,53.60
2019-02-14T15:51:03.566Z,53.80
2019-02-14T15:53:32.894Z,54.00
2019-02-14T15:56:03.424Z,54.20
2019-02-14T15:58:33.595Z,54.30
2019-02-14T16:01:03.003Z,54.30
2019-02-14T16:03:32.375Z,54.40
2019-02-14T16:06:02.265Z,54.60
2019-02-14T16:08:32.737Z,54.80
2019-02-14T16:11:02.207Z,55.00
2019-02-14T16:13:33.522Z,55.10
2019-02-14T16:16:02.640Z,55.30
2019-02-14T16:18:32.005Z,55.50
2019-02-14T16:21:01.391Z,55.70
2019-02-14T16:23:31.920Z,55.70
2019-02-14T16:26:01.854Z,55.90
2019-02-14T16:28:31.531Z,56.00
2019-02-14T16:31:00.920Z,56.20
2019-02-14T16:33:30.306Z,56.50
2019-02-14T16:35:59.727Z,56.90
2019-02-14T16:38:30.091Z,57.30
2019-02-14T16:40:59.533Z,57.70
2019-02-14T16:43:28.952Z,58.00
2019-02-14T16:45:58.371Z,58.40
2019-02-14T16:48:27.759Z,58.70
2019-02-14T16:50:57.171Z,58.90
2019-02-14T16:53:26.552Z,59.00
2019-02-14T16:56:01.850Z,59.20
2019-02-14T16:58:26.959Z,59.40
2019-02-14T17:00:56.370Z,59.50
2019-02-14T17:03:25.755Z,59.70
2019-02-14T17:05:55.149Z,60.10
2019-02-14T17:08:24.531Z,60.60
2019-02-14T17:10:53.959Z,61.10
2019-02-14T17:13:23.347Z,61.50
2019-02-14T17:15:52.735Z,61.70
2019-02-14T17:18:22.148Z,61.90
2019-02-14T17:20:51.590Z,62.20
2019-02-14T17:23:20.976Z,62.30
2019-02-14T17:25:50.379Z,62.50
2019-02-14T17:28:19.818Z,62.70
2019-02-14T17:30:49.200Z,62.80
2019-02-14T17:33:18.623Z,62.90
2019-02-14T17:35:48.000Z,63.20
2019-02-14T17:38:17.448Z,63.30
2019-02-14T17:40:46.845Z,63.60
2019-02-14T17:43:16.269Z,63.80
2019-02-14T17:45:45.669Z,64.30
2019-02-14T17:48:15.114Z,64.80
2019-02-14T17:50:44.508Z,65.20
2019-02-14T17:53:13.917Z,65.80
2019-02-14T17:55:43.319Z,66.00
2019-02-14T17:58:12.731Z,66.40
2019-02-14T18:00:42.708Z,66.60
2019-02-14T18:03:12.112Z,66.90
2019-02-14T18:05:41.519Z,67.30
2019-02-14T18:08:10.901Z,67.60
2019-02-14T18:10:40.327Z,67.80
2019-02-14T18:13:09.715Z,68.00
2019-02-14T18:15:39.149Z,68.20
2019-02-14T18:18:08.528Z,68.40
2019-02-14T18:20:37.960Z,68.60
2019-02-14T18:23:07.348Z,68.90
2019-02-14T18:25:36.751Z,69.00
2019-02-14T18:28:06.193Z,69.20
2019-02-14T18:30:35.591Z,69.50
2019-02-14T18:33:04.994Z,69.80
2019-02-14T18:35:34.384Z,70.00
2019-02-14T18:38:03.806Z,70.00
2019-02-14T18:40:33.188Z,70.00
2019-02-14T18:43:02.638Z,70.30
2019-02-14T18:45:32.023Z,70.50
2019-02-14T18:48:01.429Z,70.80
2019-02-14T18:50:30.816Z,70.90
2019-02-14T18:53:00.210Z,71.00
2019-02-14T18:55:29.634Z,71.30
2019-02-14T18:57:59.015Z,71.50
2019-02-14T19:00:28.442Z,71.40
2019-02-14T19:02:57.812Z,71.40
2019-02-14T19:05:27.236Z,71.70
2019-02-14T19:07:56.625Z,71.80
2019-02-14T19:10:26.043Z,72.00
2019-02-14T19:12:55.443Z,72.20
2019-02-14T19:15:24.824Z,72.40
2019-02-14T19:17:54.240Z,72.40
2019-02-14T19:20:23.616Z,72.50
2019-02-14T19:22:52.967Z,72.60
2019-02-14T19:25:22.487Z,72.70
2019-02-14T19:27:51.911Z,72.80
2019-02-14T19:30:21.341Z,73.60
2019-02-14T19:32:50.743Z,73.10
2019-02-14T19:35:23.003Z,73.00
2019-02-14T19:37:51.257Z,73.20
2019-02-14T19:40:20.701Z,73.30
2019-02-14T19:42:50.099Z,73.50
2019-02-14T19:45:19.490Z,73.80
2019-02-14T19:47:48.903Z,73.90
2019-02-14T19:50:18.328Z,73.90
2019-02-14T19:52:47.772Z,73.90
2019-02-14T19:55:17.169Z,73.90
2019-02-14T19:57:46.560Z,74.10
2019-02-14T20:00:16.028Z,74.20
2019-02-14T20:02:47.020Z,74.40
2019-02-14T20:05:16.463Z,74.50
2019-02-14T20:07:45.859Z,74.60
2019-02-14T20:10:15.649Z,74.70
2019-02-14T20:12:45.055Z,74.80
2019-02-14T20:15:15.399Z,74.90
2019-02-14T20:17:44.770Z,75.20
2019-02-14T20:20:14.286Z,75.40
2019-02-14T20:22:43.679Z,75.60
2019-02-14T20:25:14.389Z,76.00
2019-02-14T20:27:43.787Z,76.00
2019-02-14T20:30:13.221Z,76.00
2019-02-14T20:32:42.714Z,76.00
2019-02-14T20:35:12.252Z,76.30
2019-02-14T20:37:41.700Z,76.40
2019-02-14T20:40:11.283Z,76.40
2019-02-14T20:42:40.703Z,76.50
2019-02-14T20:45:10.932Z,76.50
2019-02-14T20:47:40.316Z,76.50
2019-02-14T20:50:11.361Z,76.50
2019-02-14T20:52:40.767Z,76.60
2019-02-14T20:55:11.891Z,76.70
2019-02-14T20:57:42.028Z,76.90
2019-02-14T21:00:24.591Z,76.90
2019-02-14T21:02:54.043Z,77.10
2019-02-14T21:05:24.172Z,77.20
2019-02-14T21:07:53.615Z,77.30
2019-02-14T21:10:23.037Z,77.40
2019-02-14T21:12:52.445Z,77.50
2019-02-14T21:15:21.979Z,77.70
2019-02-14T21:17:51.345Z,77.80
2019-02-14T21:20:20.720Z,77.90
2019-02-14T21:22:50.134Z,77.90
2019-02-14T21:25:23.052Z,78.00
2019-02-14T21:27:50.946Z,78.00
2019-02-14T21:30:20.645Z,78.10
2019-02-14T21:32:50.069Z,78.20
2019-02-14T21:35:19.419Z,78.20
2019-02-14T21:37:48.822Z,78.30
2019-02-14T21:40:18.243Z,78.50
2019-02-14T21:42:47.647Z,78.60
2019-02-14T21:45:17.082Z,78.50
2019-02-14T21:47:46.656Z,78.60
2019-02-14T21:50:16.229Z,78.60
2019-02-14T21:52:45.868Z,78.50
2019-02-14T21:55:15.375Z,78.70
2019-02-14T21:57:44.790Z,78.90
2019-02-14T22:00:16.482Z,78.90
2019-02-14T22:02:46.410Z,78.90
2019-02-14T22:05:15.911Z,78.90
2019-02-14T22:07:45.429Z,79.10
2019-02-14T22:10:14.854Z,79.20
2019-02-14T22:12:44.474Z,79.30
2019-02-14T22:15:15.294Z,79.50
2019-02-14T22:17:44.808Z,79.60
2019-02-14T22:20:14.402Z,79.70
2019-02-14T22:22:43.795Z,79.70
2019-02-14T22:25:13.244Z,79.70
2019-02-14T22:27:42.663Z,79.70
2019-02-14T22:30:14.629Z,79.90
2019-02-14T22:32:44.596Z,79.90
2019-02-14T22:35:14.028Z,80.00
2019-02-14T22:37:43.405Z,80.00
2019-02-14T22:40:12.837Z,80.00
2019-02-14T22:42:47.299Z,80.00
2019-02-14T22:45:13.687Z,80.20
2019-02-14T22:47:43.792Z,80.30
2019-02-14T22:50:13.237Z,80.40
2019-02-14T22:52:42.652Z,80.30
2019-02-14T22:55:12.052Z,80.40
2019-02-14T22:57:41.673Z,80.50
2019-02-14T23:00:33.783Z,80.70
2019-02-14T23:03:03.184Z,80.70
2019-02-14T23:05:32.564Z,80.70
2019-02-14T23:08:01.976Z,80.80
2019-02-14T23:10:31.357Z,80.90
2019-02-14T23:13:00.759Z,80.90
2019-02-14T23:15:30.194Z,80.90
2019-02-14T23:17:59.559Z,81.00
2019-02-14T23:20:29.034Z,81.00
2019-02-14T23:22:58.419Z,80.90
2019-02-14T23:25:27.841Z,80.90
2019-02-14T23:27:57.415Z,81.00
2019-02-14T23:30:26.844Z,81.20
2019-02-14T23:32:56.227Z,81.20
2019-02-14T23:35:25.655Z,81.20
2019-02-14T23:37:55.055Z,81.10
2019-02-14T23:40:24.466Z,81.20
2019-02-14T23:42:54.453Z,81.10
2019-02-14T23:45:24.114Z,81.10
2019-02-14T23:47:53.524Z,81.20
2019-02-14T23:50:22.918Z,81.20
2019-02-14T23:52:52.305Z,81.30
2019-02-14T23:55:21.763Z,81.30
2019-02-14T23:57:51.144Z,81.20
